Time,TemperatureF,DewpointF,PressureIn,WindDirection,WindDirectionDegrees,WindSpeedMPH,WindSpeedGustMPH,Humidity,HourlyPrecipIn,Conditions,Clouds,dailyrainin,SoftwareType,DateUTC
2013-11-12 00:01:00,40.1,35.7,30.00,NW,324,6.0,34.0,84,0.00,,,0.00,Wunderground v.1.15,2013-11-12 05:01:00,
2013-11-12 00:03:00,40.0,35.6,30.00,WNW,295,6.0,34.0,84,0.00,,,0.00,Wunderground v.1.15,2013-11-12 05:03:00,
2013-11-12 00:04:00,40.0,35.6,30.00,WNW,290,6.0,34.0,84,0.00,,,0.00,Wunderground v.1.15,2013-11-12 05:04:00,
2013-11-12 00:07:00,39.9,35.8,30.00,WNW,285,6.0,34.0,85,0.00,,,0.00,Wunderground v.1.15,2013-11-12 05:07:00,
2013-11-12 00:08:00,39.8,35.7,30.01,North,5,5.0,34.0,85,0.00,,,0.00,Wunderground v.1.15,2013-11-12 05:08:00,
2013-11-12 00:11:00,39.4,34.7,30.02,NE,34,6.0,34.0,83,0.00,,,0.00,Wunderground v.1.15,2013-11-12 05:11:00,
2013-11-12 00:17:00,36.8,33.0,30.02,WNW,296,10.0,34.0,86,0.00,,,0.01,Wunderground v.1.15,2013-11-12 05:17:00,
2013-11-12 00:23:00,36.0,32.8,30.01,NNW,337,7.0,34.0,88,0.00,,,0.01,Wunderground v.1.15,2013-11-12 05:23:00,
2013-11-12 00:29:00,35.8,32.9,30.01,WNW,301,5.0,34.0,89,0.00,,,0.01,Wunderground v.1.15,2013-11-12 05:29:00,
2013-11-12 00:35:00,35.7,32.8,30.02,NNW,329,4.0,34.0,89,0.00,,,0.02,Wunderground v.1.15,2013-11-12 05:35:00,
2013-11-12 00:40:00,35.8,32.9,30.01,NW,324,4.0,34.0,89,0.00,,,0.02,Wunderground v.1.15,2013-11-12 05:40:00,
2013-11-12 00:46:00,35.7,33.1,30.02,NNW,338,3.0,34.0,90,0.00,,,0.02,Wunderground v.1.15,2013-11-12 05:46:00,
2013-11-12 00:52:00,35.6,33.0,30.02,NNW,331,3.0,34.0,90,0.00,,,0.02,Wunderground v.1.15,2013-11-12 05:52:00,
2013-11-12 00:58:00,35.5,32.9,30.02,NNW,334,6.0,34.0,90,0.00,,,0.02,Wunderground v.1.15,2013-11-12 05:58:00,
2013-11-12 01:04:00,35.4,32.5,30.02,West,278,6.0,21.0,89,0.00,,,0.02,Wunderground v.1.15,2013-11-12 06:04:00,
2013-11-12 01:10:00,35.3,32.4,30.02,WNW,299,4.0,21.0,89,0.00,,,0.02,Wunderground v.1.15,2013-11-12 06:10:00,
2013-11-12 01:16:00,35.3,32.7,30.02,NW,306,3.0,21.0,90,0.00,,,0.02,Wunderground v.1.15,2013-11-12 06:16:00,
2013-11-12 01:21:00,35.2,32.3,30.03,WNW,288,4.0,21.0,89,0.00,,,0.02,Wunderground v.1.15,2013-11-12 06:21:00,
2013-11-12 01:27:00,35.1,32.2,30.03,NNW,333,5.0,21.0,89,0.00,,,0.02,Wunderground v.1.15,2013-11-12 06:27:00,
2013-11-12 01:33:00,34.9,31.7,30.03,North,360,6.0,21.0,88,0.00,,,0.02,Wunderground v.1.15,2013-11-12 06:33:00,
2013-11-12 01:39:00,34.7,31.8,30.04,North,5,6.0,21.0,89,0.00,,,0.02,Wunderground v.1.15,2013-11-12 06:39:00,
2013-11-12 01:45:00,34.3,31.7,30.04,NW,323,5.0,21.0,90,0.00,,,0.02,Wunderground v.1.15,2013-11-12 06:45:00,
2013-11-12 06:21:00,26.8,21.5,30.15,NNW,328,10.0,21.0,80,0.00,,,0.02,Wunderground v.1.15,2013-11-12 11:21:00,
2013-11-12 06:27:00,26.7,21.4,30.15,NNW,329,9.0,21.0,80,0.00,,,0.02,Wunderground v.1.15,2013-11-12 11:27:00,
2013-11-12 06:33:00,26.7,21.4,30.15,NNW,344,8.0,21.0,80,0.00,,,0.02,Wunderground v.1.15,2013-11-12 11:33:00,
2013-11-12 06:39:00,26.6,21.3,30.15,NNW,348,8.0,21.0,80,0.00,,,0.02,Wunderground v.1.15,2013-11-12 11:39:00,
2013-11-12 06:45:00,26.5,21.2,30.15,NNW,339,8.0,21.0,80,0.00,,,0.02,Wunderground v.1.15,2013-11-12 11:45:00,
2013-11-12 06:51:00,26.4,21.1,30.15,NNE,13,7.0,10.0,80,0.00,,,0.02,Wunderground v.1.15,2013-11-12 11:51:00,
2013-11-12 06:57:00,26.4,21.1,30.16,NNE,15,8.0,21.0,80,0.00,,,0.02,Wunderground v.1.15,2013-11-12 11:57:00,
2013-11-12 07:03:00,26.4,21.1,30.16,NNW,346,9.0,21.0,80,0.00,,,0.02,Wunderground v.1.15,2013-11-12 12:03:00,
2013-11-12 07:09:00,26.4,21.1,30.16,NNW,336,9.0,21.0,80,0.00,,,0.02,Wunderground v.1.15,2013-11-12 12:09:00,
2013-11-12 07:15:00,26.2,20.6,30.17,NNW,336,9.0,21.0,79,0.00,,,0.02,Wunderground v.1.15,2013-11-12 12:15:00,
2013-11-12 07:21:00,26.2,20.9,30.17,NNE,17,8.0,12.0,80,0.00,,,0.02,Wunderground v.1.15,2013-11-12 12:21:00,
2013-11-12 07:27:00,26.1,20.8,30.17,North,355,9.0,21.0,80,0.00,,,0.02,Wunderground v.1.15,2013-11-12 12:27:00,
2013-11-12 07:33:00,26.1,20.8,30.17,NNW,342,9.0,21.0,80,0.00,,,0.02,Wunderground v.1.15,2013-11-12 12:33:00,
2013-11-12 07:38:00,26.1,20.8,30.18,North,355,8.0,21.0,80,0.00,,,0.02,Wunderground v.1.15,2013-11-12 12:38:00,
2013-11-12 07:44:00,26.1,21.1,30.18,NNW,336,8.0,21.0,81,0.00,,,0.02,Wunderground v.1.15,2013-11-12 12:44:00,
2013-11-12 07:50:00,26.1,21.1,30.18,North,355,8.0,21.0,81,0.00,,,0.02,Wunderground v.1.15,2013-11-12 12:50:00,
2013-11-12 07:56:00,26.2,21.5,30.18,NW,315,9.0,21.0,82,0.00,,,0.02,Wunderground v.1.15,2013-11-12 12:56:00,
2013-11-12 08:02:00,26.3,21.3,30.18,NNW,344,9.0,21.0,81,0.00,,,0.02,Wunderground v.1.15,2013-11-12 13:02:00,
2013-11-12 08:08:00,26.2,21.2,30.18,North,349,10.0,21.0,81,0.00,,,0.02,Wunderground v.1.15,2013-11-12 13:08:00,
2013-11-12 08:14:00,26.2,21.5,30.18,NNW,336,10.0,21.0,82,0.00,,,0.02,Wunderground v.1.15,2013-11-12 13:14:00,
2013-11-12 08:20:00,26.1,21.4,30.19,North,9,9.0,21.0,82,0.00,,,0.02,Wunderground v.1.15,2013-11-12 13:20:00,
2013-11-12 08:26:00,26.0,20.7,30.19,North,11,11.0,21.0,80,0.00,,,0.02,Wunderground v.1.15,2013-11-12 13:26:00,
2013-11-12 08:32:00,26.0,20.7,30.19,North,355,11.0,21.0,80,0.00,,,0.02,Wunderground v.1.15,2013-11-12 13:32:00,
2013-11-12 08:38:00,26.0,20.4,30.19,North,5,10.0,23.0,79,0.00,,,0.02,Wunderground v.1.15,2013-11-12 13:38:00,
2013-11-12 08:44:00,26.0,20.4,30.20,North,355,10.0,21.0,79,0.00,,,0.02,Wunderground v.1.15,2013-11-12 13:44:00,
2013-11-12 08:50:00,26.0,20.4,30.20,NNW,348,12.0,12.0,79,0.00,,,0.02,Wunderground v.1.15,2013-11-12 13:50:00,
2013-11-12 08:55:00,26.1,20.2,30.20,WNW,303,12.0,21.0,78,0.00,,,0.02,Wunderground v.1.15,2013-11-12 13:55:00,
2013-11-12 09:01:00,26.1,20.2,30.20,NW,326,11.0,16.0,78,0.00,,,0.02,Wunderground v.1.15,2013-11-12 14:01:00,
2013-11-12 09:07:00,26.0,19.8,30.20,North,360,13.0,21.0,77,0.00,,,0.02,Wunderground v.1.15,2013-11-12 14:07:00,
2013-11-12 09:13:00,26.0,20.1,30.20,NNW,342,12.0,21.0,78,0.00,,,0.02,Wunderground v.1.15,2013-11-12 14:13:00,
2013-11-12 09:18:00,26.0,19.8,30.21,North,5,11.0,21.0,77,0.00,,,0.02,Wunderground v.1.15,2013-11-12 14:18:00,
2013-11-12 09:24:00,26.0,19.5,30.20,NNW,336,12.0,21.0,76,0.00,,,0.02,Wunderground v.1.15,2013-11-12 14:24:00,
2013-11-12 09:30:00,26.0,19.5,30.20,NW,323,13.0,21.0,76,0.00,,,0.02,Wunderground v.1.15,2013-11-12 14:30:00,
2013-11-12 09:36:00,25.9,19.4,30.20,NNW,343,13.0,21.0,76,0.00,,,0.02,Wunderground v.1.15,2013-11-12 14:36:00,
2013-11-12 09:42:00,25.9,19.7,30.21,WNW,286,12.0,21.0,77,0.00,,,0.02,Wunderground v.1.15,2013-11-12 14:42:00,
2013-11-12 09:48:00,25.8,19.6,30.21,NNE,32,11.0,21.0,77,0.00,,,0.02,Wunderground v.1.15,2013-11-12 14:48:00,
2013-11-12 09:54:00,25.7,19.2,30.22,North,351,14.0,21.0,76,0.00,,,0.02,Wunderground v.1.15,2013-11-12 14:54:00,
2013-11-12 09:59:00,25.6,19.4,30.21,NNE,18,14.0,21.0,77,0.00,,,0.02,Wunderground v.1.15,2013-11-12 14:59:00,
2013-11-12 10:04:00,25.7,19.5,30.21,North,5,12.0,21.0,77,0.00,,,0.02,Wunderground v.1.15,2013-11-12 15:04:00,
2013-11-12 10:10:00,25.5,19.3,30.22,NNE,22,12.0,12.0,77,0.00,,,0.02,Wunderground v.1.15,2013-11-12 15:10:00,
2013-11-12 10:16:00,25.6,19.4,30.22,NNE,13,13.0,21.0,77,0.00,,,0.02,Wunderground v.1.15,2013-11-12 15:16:00,
2013-11-12 10:22:00,25.7,19.2,30.21,North,355,13.0,23.0,76,0.00,,,0.02,Wunderground v.1.15,2013-11-12 15:22:00,
2013-11-12 10:28:00,26.2,19.7,30.21,WNW,301,12.0,23.0,76,0.00,,,0.02,Wunderground v.1.15,2013-11-12 15:28:00,
2013-11-12 10:34:00,26.8,19.9,30.21,NNW,342,10.0,21.0,75,0.00,,,0.02,Wunderground v.1.15,2013-11-12 15:34:00,
2013-11-12 10:40:00,26.8,19.6,30.22,North,355,9.0,21.0,74,0.00,,,0.02,Wunderground v.1.15,2013-11-12 15:40:00,
2013-11-12 10:46:00,26.5,19.3,30.22,WNW,302,12.0,21.0,74,0.00,,,0.02,Wunderground v.1.15,2013-11-12 15:46:00,
2013-11-12 10:52:00,26.6,19.1,30.22,NNE,13,12.0,21.0,73,0.00,,,0.02,Wunderground v.1.15,2013-11-12 15:52:00,
2013-11-12 10:58:00,26.7,19.2,30.22,North,5,11.0,21.0,73,0.00,,,0.02,Wunderground v.1.15,2013-11-12 15:58:00,
2013-11-12 11:04:00,26.5,19.3,30.22,NNW,339,12.0,21.0,74,0.00,,,0.02,Wunderground v.1.15,2013-11-12 16:04:00,
2013-11-12 11:10:00,26.6,19.1,30.22,NNW,331,11.0,11.0,73,0.00,,,0.02,Wunderground v.1.15,2013-11-12 16:10:00,
2013-11-12 11:16:00,26.6,19.4,30.22,WNW,294,10.0,21.0,74,0.00,,,0.02,Wunderground v.1.15,2013-11-12 16:16:00,
2013-11-12 11:21:00,26.7,19.5,30.22,NW,321,9.0,21.0,74,0.00,,,0.02,Wunderground v.1.15,2013-11-12 16:21:00,
2013-11-12 11:27:00,26.4,19.2,30.21,NNW,340,11.0,21.0,74,0.00,,,0.02,Wunderground v.1.15,2013-11-12 16:27:00,
2013-11-12 11:33:00,26.4,19.5,30.22,NW,311,12.0,21.0,75,0.00,,,0.02,Wunderground v.1.15,2013-11-12 16:33:00,
2013-11-12 11:39:00,26.7,19.8,30.22,West,277,11.0,21.0,75,0.00,,,0.02,Wunderground v.1.15,2013-11-12 16:39:00,
2013-11-12 11:45:00,27.0,20.1,30.22,North,360,11.0,21.0,75,0.00,,,0.02,Wunderground v.1.15,2013-11-12 16:45:00,
2013-11-12 11:51:00,27.5,20.0,30.22,North,5,11.0,21.0,73,0.00,,,0.02,Wunderground v.1.15,2013-11-12 16:51:00,
2013-11-12 11:57:00,27.4,19.6,30.22,NNE,15,11.0,21.0,72,0.00,,,0.02,Wunderground v.1.15,2013-11-12 16:57:00,
2013-11-12 12:03:00,27.3,19.8,30.22,North,360,12.0,21.0,73,0.00,,,0.02,Wunderground v.1.15,2013-11-12 17:03:00,
2013-11-12 12:09:00,28.0,20.5,30.22,WNW,297,12.0,21.0,73,0.00,,,0.02,Wunderground v.1.15,2013-11-12 17:09:00,
2013-11-12 12:15:00,27.9,20.4,30.23,NNE,23,11.0,21.0,73,0.00,,,0.02,Wunderground v.1.15,2013-11-12 17:15:00,
2013-11-12 12:21:00,28.0,20.8,30.23,NNE,26,12.0,21.0,74,0.00,,,0.02,Wunderground v.1.15,2013-11-12 17:21:00,
2013-11-12 12:27:00,28.7,21.1,30.23,NNE,16,10.0,21.0,73,0.00,,,0.02,Wunderground v.1.15,2013-11-12 17:27:00,
2013-11-12 12:33:00,28.5,20.6,30.23,NNW,334,13.0,21.0,72,0.00,,,0.02,Wunderground v.1.15,2013-11-12 17:33:00,
2013-11-12 12:39:00,28.0,20.1,30.23,NNW,347,14.0,23.0,72,0.00,,,0.02,Wunderground v.1.15,2013-11-12 17:39:00,
2013-11-12 12:44:00,27.9,20.4,30.23,NW,323,13.0,21.0,73,0.00,,,0.02,Wunderground v.1.15,2013-11-12 17:44:00,
2013-11-12 12:50:00,28.0,20.8,30.23,North,5,10.0,21.0,74,0.00,,,0.02,Wunderground v.1.15,2013-11-12 17:50:00,
2013-11-12 12:56:00,28.0,20.8,30.23,North,349,11.0,21.0,74,0.00,,,0.02,Wunderground v.1.15,2013-11-12 17:56:00,
2013-11-12 13:02:00,27.8,20.6,30.23,North,5,13.0,21.0,74,0.00,,,0.02,Wunderground v.1.15,2013-11-12 18:02:00,
2013-11-12 13:08:00,27.6,20.4,30.23,NNE,26,12.0,24.0,74,0.00,,,0.02,Wunderground v.1.15,2013-11-12 18:08:00,
2013-11-12 13:14:00,27.7,20.8,30.23,NW,318,11.0,21.0,75,0.00,,,0.02,Wunderground v.1.15,2013-11-12 18:14:00,
2013-11-12 13:20:00,27.8,20.6,30.24,NW,309,11.0,21.0,74,0.00,,,0.02,Wunderground v.1.15,2013-11-12 18:20:00,
2013-11-12 13:26:00,27.9,20.7,30.23,NE,41,11.0,21.0,74,0.00,,,0.02,Wunderground v.1.15,2013-11-12 18:26:00,
2013-11-12 13:32:00,28.1,20.9,30.23,NNE,22,9.0,21.0,74,0.00,,,0.02,Wunderground v.1.15,2013-11-12 18:32:00,
2013-11-12 13:38:00,28.1,20.6,30.24,NNW,336,9.0,21.0,73,0.00,,,0.02,Wunderground v.1.15,2013-11-12 18:38:00,
2013-11-12 13:44:00,27.6,19.8,30.24,WSW,254,11.0,23.0,72,0.00,,,0.02,Wunderground v.1.15,2013-11-12 18:44:00,
2013-11-12 13:50:00,27.7,19.8,30.24,NNW,329,11.0,21.0,72,0.00,,,0.02,Wunderground v.1.15,2013-11-12 18:50:00,
2013-11-12 13:56:00,27.7,19.8,30.24,NW,324,9.0,22.0,72,0.00,,,0.02,Wunderground v.1.15,2013-11-12 18:56:00,
2013-11-12 14:01:00,27.8,19.6,30.24,NNW,328,10.0,21.0,71,0.00,,,0.02,Wunderground v.1.15,2013-11-12 19:01:00,
2013-11-12 14:07:00,28.0,19.8,30.25,North,360,9.0,21.0,71,0.00,,,0.02,Wunderground v.1.15,2013-11-12 19:07:00,
2013-11-12 14:13:00,28.1,20.2,30.25,NW,308,10.0,21.0,72,0.00,,,0.02,Wunderground v.1.15,2013-11-12 19:13:00,
2013-11-12 14:19:00,28.1,20.2,30.25,North,5,9.0,21.0,72,0.00,,,0.02,Wunderground v.1.15,2013-11-12 19:19:00,
2013-11-12 14:25:00,28.1,19.9,30.26,NNE,12,10.0,21.0,71,0.00,,,0.02,Wunderground v.1.15,2013-11-12 19:25:00,
2013-11-12 14:31:00,28.0,19.8,30.25,NW,305,11.0,21.0,71,0.00,,,0.02,Wunderground v.1.15,2013-11-12 19:31:00,
2013-11-12 14:37:00,28.1,19.6,30.26,NNW,327,11.0,21.0,70,0.00,,,0.02,Wunderground v.1.15,2013-11-12 19:37:00,
2013-11-12 14:43:00,28.2,19.7,30.26,NW,319,11.0,21.0,70,0.00,,,0.02,Wunderground v.1.15,2013-11-12 19:43:00,
2013-11-12 14:49:00,28.3,19.8,30.26,WNW,296,10.0,21.0,70,0.00,,,0.02,Wunderground v.1.15,2013-11-12 19:49:00,
2013-11-12 14:55:00,28.3,19.4,30.26,NNE,15,10.0,21.0,69,0.00,,,0.02,Wunderground v.1.15,2013-11-12 19:55:00,
2013-11-12 15:01:00,28.4,19.9,30.26,North,5,9.0,21.0,70,0.00,,,0.02,Wunderground v.1.15,2013-11-12 20:01:00,
2013-11-12 15:07:00,28.4,19.9,30.26,North,355,7.0,21.0,70,0.00,,,0.02,Wunderground v.1.15,2013-11-12 20:07:00,
2013-11-12 15:13:00,28.4,19.9,30.26,NNW,342,7.0,21.0,70,0.00,,,0.02,Wunderground v.1.15,2013-11-12 20:13:00,
2013-11-12 15:19:00,28.4,20.2,30.26,North,5,7.0,21.0,71,0.00,,,0.02,Wunderground v.1.15,2013-11-12 20:19:00,
2013-11-12 15:24:00,28.3,20.1,30.27,NNW,333,7.0,21.0,71,0.00,,,0.02,Wunderground v.1.15,2013-11-12 20:24:00,
2013-11-12 15:30:00,28.3,19.8,30.27,NNW,334,8.0,8.0,70,0.00,,,0.02,Wunderground v.1.15,2013-11-12 20:30:00,
2013-11-12 15:36:00,28.4,19.9,30.27,NNW,342,8.0,21.0,70,0.00,,,0.02,Wunderground v.1.15,2013-11-12 20:36:00,
2013-11-12 15:42:00,28.3,20.1,30.27,NW,326,8.0,21.0,71,0.00,,,0.02,Wunderground v.1.15,2013-11-12 20:42:00,
2013-11-12 15:48:00,28.4,20.2,30.28,North,5,8.0,21.0,71,0.00,,,0.02,Wunderground v.1.15,2013-11-12 20:48:00,
2013-11-12 15:54:00,28.4,19.9,30.28,NNW,329,7.0,21.0,70,0.00,,,0.02,Wunderground v.1.15,2013-11-12 20:54:00,
2013-11-12 16:00:00,28.5,20.3,30.28,NNW,339,7.0,7.0,71,0.00,,,0.02,Wunderground v.1.15,2013-11-12 21:00:00,
2013-11-12 16:06:00,28.4,20.2,30.28,NNW,347,7.0,21.0,71,0.00,,,0.02,Wunderground v.1.15,2013-11-12 21:06:00,
2013-11-12 16:12:00,28.3,20.4,30.28,NW,311,8.0,21.0,72,0.00,,,0.02,Wunderground v.1.15,2013-11-12 21:12:00,
2013-11-12 16:18:00,28.3,20.4,30.28,North,5,7.0,21.0,72,0.00,,,0.02,Wunderground v.1.15,2013-11-12 21:18:00,
2013-11-12 16:24:00,28.3,20.7,30.29,NW,322,5.0,21.0,73,0.00,,,0.02,Wunderground v.1.15,2013-11-12 21:24:00,
2013-11-12 16:30:00,28.2,20.7,30.28,North,5,6.0,21.0,73,0.00,,,0.02,Wunderground v.1.15,2013-11-12 21:30:00,
2013-11-12 16:36:00,28.2,21.0,30.28,NNE,14,7.0,21.0,74,0.00,,,0.02,Wunderground v.1.15,2013-11-12 21:36:00,
2013-11-12 16:41:00,28.1,20.9,30.29,North,11,6.0,21.0,74,0.00,,,0.02,Wunderground v.1.15,2013-11-12 21:41:00,
2013-11-12 16:47:00,28.1,21.2,30.29,NNW,330,5.0,21.0,75,0.00,,,0.02,Wunderground v.1.15,2013-11-12 21:47:00,
2013-11-12 16:53:00,28.1,21.2,30.29,NNW,335,5.0,21.0,75,0.00,,,0.02,Wunderground v.1.15,2013-11-12 21:53:00,
2013-11-12 16:59:00,28.2,21.0,30.29,NNW,336,4.0,21.0,74,0.00,,,0.02,Wunderground v.1.15,2013-11-12 21:59:00,
2013-11-12 17:05:00,28.2,21.0,30.29,NW,322,5.0,21.0,74,0.00,,,0.02,Wunderground v.1.15,2013-11-12 22:05:00,
2013-11-12 17:11:00,28.2,21.0,30.30,WNW,300,5.0,21.0,74,0.00,,,0.02,Wunderground v.1.15,2013-11-12 22:11:00,
2013-11-12 17:17:00,28.2,21.0,30.30,NW,319,4.0,21.0,74,0.00,,,0.02,Wunderground v.1.15,2013-11-12 22:17:00,
2013-11-12 17:23:00,28.1,20.9,30.30,NNW,336,3.0,21.0,74,0.00,,,0.02,Wunderground v.1.15,2013-11-12 22:23:00,
2013-11-12 17:29:00,28.1,20.9,30.30,NW,317,4.0,21.0,74,0.00,,,0.02,Wunderground v.1.15,2013-11-12 22:29:00,
2013-11-12 17:35:00,28.1,20.9,30.30,NNW,329,4.0,21.0,74,0.00,,,0.02,Wunderground v.1.15,2013-11-12 22:35:00,
2013-11-12 17:41:00,28.0,21.1,30.30,NNW,347,3.0,21.0,75,0.00,,,0.02,Wunderground v.1.15,2013-11-12 22:41:00,
2013-11-12 17:47:00,28.0,20.8,30.30,NW,317,3.0,21.0,74,0.00,,,0.02,Wunderground v.1.15,2013-11-12 22:47:00,
2013-11-12 17:53:00,28.1,21.2,30.31,North,351,4.0,21.0,75,0.00,,,0.02,Wunderground v.1.15,2013-11-12 22:53:00,
2013-11-12 17:59:00,28.1,21.2,30.30,NNW,334,5.0,21.0,75,0.00,,,0.02,Wunderground v.1.15,2013-11-12 22:59:00,
2013-11-12 18:04:00,28.0,21.1,30.30,NW,314,6.0,21.0,75,0.00,,,0.02,Wunderground v.1.15,2013-11-12 23:04:00,
2013-11-12 18:10:00,27.9,21.0,30.30,North,351,5.0,5.0,75,0.00,,,0.02,Wunderground v.1.15,2013-11-12 23:10:00,
2013-11-12 18:16:00,27.6,21.0,30.30,NNW,338,5.0,21.0,76,0.00,,,0.02,Wunderground v.1.15,2013-11-12 23:16:00,
2013-11-12 18:22:00,27.4,20.8,30.30,NW,314,4.0,21.0,76,0.00,,,0.02,Wunderground v.1.15,2013-11-12 23:22:00,
2013-11-12 18:28:00,27.3,20.7,30.30,North,360,4.0,21.0,76,0.00,,,0.02,Wunderground v.1.15,2013-11-12 23:28:00,
2013-11-12 18:34:00,27.1,20.5,30.30,NW,318,5.0,21.0,76,0.00,,,0.02,Wunderground v.1.15,2013-11-12 23:34:00,
2013-11-12 18:40:00,27.0,20.4,30.30,NNW,335,4.0,21.0,76,0.00,,,0.02,Wunderground v.1.15,2013-11-12 23:40:00,
2013-11-12 18:45:00,27.0,20.4,30.30,NNW,335,4.0,21.0,76,0.00,,,0.02,Wunderground v.1.15,2013-11-12 23:45:00,
2013-11-12 18:50:00,26.9,20.3,30.30,NW,319,4.0,21.0,76,0.00,,,0.02,Wunderground v.1.15,2013-11-12 23:50:00,
2013-11-12 18:55:00,26.8,20.2,30.30,NNW,334,5.0,21.0,76,0.00,,,0.02,Wunderground v.1.15,2013-11-12 23:55:00,
2013-11-12 19:01:00,26.7,20.1,30.30,WNW,300,6.0,7.0,76,0.00,,,0.02,Wunderground v.1.15,2013-11-13 00:01:00,
2013-11-12 19:07:00,26.7,20.5,30.30,NNW,347,5.0,21.0,77,0.00,,,0.02,Wunderground v.1.15,2013-11-13 00:07:00,
2013-11-12 19:13:00,26.7,20.5,30.31,NW,313,6.0,21.0,77,0.00,,,0.02,Wunderground v.1.15,2013-11-13 00:13:00,
2013-11-12 19:19:00,26.6,20.7,30.31,NW,308,6.0,21.0,78,0.00,,,0.02,Wunderground v.1.15,2013-11-13 00:19:00,
2013-11-12 19:25:00,26.6,20.7,30.31,WNW,298,4.0,21.0,78,0.00,,,0.02,Wunderground v.1.15,2013-11-13 00:25:00,
2013-11-12 19:31:00,26.5,20.6,30.32,NNW,333,4.0,21.0,78,0.00,,,0.02,Wunderground v.1.15,2013-11-13 00:31:00,
2013-11-12 19:37:00,26.6,20.7,30.32,North,11,5.0,21.0,78,0.00,,,0.02,Wunderground v.1.15,2013-11-13 00:37:00,
2013-11-12 19:43:00,26.7,20.5,30.32,West,281,3.0,21.0,77,0.00,,,0.02,Wunderground v.1.15,2013-11-13 00:43:00,
2013-11-12 19:49:00,26.5,20.3,30.32,NNW,336,3.0,21.0,77,0.00,,,0.02,Wunderground v.1.15,2013-11-13 00:49:00,
2013-11-12 19:55:00,26.4,20.2,30.32,WNW,298,4.0,21.0,77,0.00,,,0.02,Wunderground v.1.15,2013-11-13 00:55:00,
2013-11-12 20:01:00,26.3,19.8,30.32,NW,317,3.0,21.0,76,0.00,,,0.02,Wunderground v.1.15,2013-11-13 01:01:00,
2013-11-12 20:07:00,26.3,19.8,30.32,NNW,348,4.0,21.0,76,0.00,,,0.02,Wunderground v.1.15,2013-11-13 01:07:00,
2013-11-12 20:13:00,26.3,19.8,30.32,NW,309,4.0,21.0,76,0.00,,,0.02,Wunderground v.1.15,2013-11-13 01:13:00,
2013-11-12 20:19:00,26.2,19.4,30.33,NNW,343,4.0,21.0,75,0.00,,,0.02,Wunderground v.1.15,2013-11-13 01:19:00,
2013-11-12 20:25:00,26.2,19.4,30.33,NW,325,5.0,21.0,75,0.00,,,0.02,Wunderground v.1.15,2013-11-13 01:25:00,
2013-11-12 20:30:00,26.1,19.3,30.34,WNW,296,3.0,21.0,75,0.00,,,0.02,Wunderground v.1.15,2013-11-13 01:30:00,
2013-11-12 20:36:00,26.0,19.2,30.34,NW,314,2.0,21.0,75,0.00,,,0.02,Wunderground v.1.15,2013-11-13 01:36:00,
2013-11-12 20:42:00,25.9,19.1,30.34,North,360,3.0,21.0,75,0.00,,,0.02,Wunderground v.1.15,2013-11-13 01:42:00,
2013-11-12 20:48:00,25.8,19.0,30.34,NNW,338,3.0,21.0,75,0.00,,,0.02,Wunderground v.1.15,2013-11-13 01:48:00,
2013-11-12 20:54:00,25.7,18.9,30.34,North,360,3.0,21.0,75,0.00,,,0.02,Wunderground v.1.15,2013-11-13 01:54:00,
2013-11-12 21:00:00,25.6,18.8,30.34,NNW,338,4.0,4.0,75,0.00,,,0.02,Wunderground v.1.15,2013-11-13 02:00:00,
2013-11-12 21:06:00,25.5,18.7,30.34,NW,320,5.0,21.0,75,0.00,,,0.02,Wunderground v.1.15,2013-11-13 02:06:00,
2013-11-12 21:12:00,25.5,18.7,30.34,WNW,295,6.0,21.0,75,0.00,,,0.02,Wunderground v.1.15,2013-11-13 02:12:00,
2013-11-12 21:18:00,25.4,18.6,30.34,North,5,5.0,21.0,75,0.00,,,0.02,Wunderground v.1.15,2013-11-13 02:18:00,
2013-11-12 21:24:00,25.4,18.6,30.34,North,349,5.0,21.0,75,0.00,,,0.02,Wunderground v.1.15,2013-11-13 02:24:00,
2013-11-12 21:30:00,25.4,18.6,30.34,NW,314,4.0,21.0,75,0.00,,,0.02,Wunderground v.1.15,2013-11-13 02:30:00,
2013-11-12 21:36:00,25.5,19.0,30.34,NNW,332,5.0,21.0,76,0.00,,,0.02,Wunderground v.1.15,2013-11-13 02:36:00,
2013-11-12 21:42:00,25.5,19.0,30.34,NNW,328,6.0,21.0,76,0.00,,,0.02,Wunderground v.1.15,2013-11-13 02:42:00,
2013-11-12 21:47:00,25.4,18.9,30.33,North,349,6.0,21.0,76,0.00,,,0.02,Wunderground v.1.15,2013-11-13 02:47:00,
2013-11-12 21:53:00,25.3,18.8,30.34,NW,318,5.0,21.0,76,0.00,,,0.02,Wunderground v.1.15,2013-11-13 02:53:00,
2013-11-12 21:59:00,25.2,18.7,30.33,NW,313,4.0,21.0,76,0.00,,,0.02,Wunderground v.1.15,2013-11-13 02:59:00,
2013-11-12 22:05:00,25.1,20.7,30.33,NNW,342,5.0,21.0,83,0.00,,,0.02,Wunderground v.1.15,2013-11-13 03:05:00,
2013-11-12 22:11:00,25.1,18.9,30.33,NNW,327,5.0,11.0,77,0.00,,,0.02,Wunderground v.1.15,2013-11-13 03:11:00,
2013-11-12 22:17:00,25.0,18.8,30.34,WNW,284,5.0,21.0,77,0.00,,,0.02,Wunderground v.1.15,2013-11-13 03:17:00,
2013-11-12 22:23:00,24.9,18.7,30.34,WNW,302,3.0,21.0,77,0.00,,,0.02,Wunderground v.1.15,2013-11-13 03:23:00,
2013-11-12 22:29:00,24.9,18.7,30.34,NNW,347,4.0,21.0,77,0.00,,,0.02,Wunderground v.1.15,2013-11-13 03:29:00,
2013-11-12 22:35:00,24.8,18.9,30.34,NW,316,4.0,21.0,78,0.00,,,0.02,Wunderground v.1.15,2013-11-13 03:35:00,
2013-11-12 22:41:00,24.7,18.8,30.34,NW,323,3.0,21.0,78,0.00,,,0.02,Wunderground v.1.15,2013-11-13 03:41:00,
2013-11-12 22:47:00,24.7,18.8,30.34,NW,315,4.0,21.0,78,0.00,,,0.02,Wunderground v.1.15,2013-11-13 03:47:00,
2013-11-12 22:53:00,24.7,19.1,30.34,NW,322,5.0,21.0,79,0.00,,,0.02,Wunderground v.1.15,2013-11-13 03:53:00,
2013-11-12 22:59:00,24.8,19.2,30.35,NNW,329,4.0,21.0,79,0.00,,,0.02,Wunderground v.1.15,2013-11-13 03:59:00,
2013-11-12 23:05:00,24.8,19.2,30.35,North,5,3.0,21.0,79,0.00,,,0.02,Wunderground v.1.15,2013-11-13 04:05:00,
2013-11-12 23:10:00,24.9,19.6,30.35,NNE,12,4.0,21.0,80,0.00,,,0.02,Wunderground v.1.15,2013-11-13 04:10:00,
2013-11-12 23:16:00,25.0,19.7,30.35,North,5,6.0,21.0,80,0.00,,,0.02,Wunderground v.1.15,2013-11-13 04:16:00,
2013-11-12 23:22:00,25.1,19.8,30.35,NE,36,6.0,21.0,80,0.00,,,0.02,Wunderground v.1.15,2013-11-13 04:22:00,
2013-11-12 23:28:00,25.1,19.5,30.35,NNW,331,4.0,21.0,79,0.00,,,0.02,Wunderground v.1.15,2013-11-13 04:28:00,
2013-11-12 23:34:00,24.9,18.1,30.35,North,355,6.0,21.0,75,0.00,,,0.02,Wunderground v.1.15,2013-11-13 04:34:00,
2013-11-12 23:40:00,24.7,17.0,30.35,NNW,336,9.0,21.0,72,0.00,,,0.02,Wunderground v.1.15,2013-11-13 04:40:00,
2013-11-12 23:46:00,24.5,16.8,30.35,NNW,339,9.0,21.0,72,0.00,,,0.02,Wunderground v.1.15,2013-11-13 04:46:00,
2013-11-12 23:52:00,24.4,16.0,30.35,NNE,12,9.0,21.0,70,0.00,,,0.02,Wunderground v.1.15,2013-11-13 04:52:00,
2013-11-12 23:58:00,24.3,15.9,30.35,North,5,9.0,21.0,70,0.00,,,0.00,Wunderground v.1.15,2013-11-13 04:58:00,